TimeEST,TemperatureF,Dew PointF,Humidity,Sea Level PressureIn,VisibilityMPH,Wind Direction,Wind SpeedMPH,Gust SpeedMPH,PrecipitationIn,Events,Conditions,WindDirDegrees,DateUTC
12:58 AM,59.0,57.0,93,29.95,8.0,WSW,10.4,-,N/A,,Clear,250,2013-02-12 05:58:00
1:58 AM,60.1,57.0,90,29.95,9.0,WSW,13.8,-,N/A,,Partly Cloudy,250,2013-02-12 06:58:00
2:58 AM,59.0,55.9,90,29.97,10.0,WSW,13.8,23.0,0.00,Rain,Light Rain,250,2013-02-12 07:58:00
3:58 AM,57.9,55.9,93,29.96,8.0,WSW,12.7,-,0.00,,Clear,250,2013-02-12 08:58:00
4:58 AM,57.0,55.9,96,29.98,8.0,West,10.4,-,N/A,,Clear,260,2013-02-12 09:58:00
5:58 AM,55.9,54.0,93,29.98,9.0,WSW,5.8,-,N/A,,Clear,250,2013-02-12 10:58:00
6:58 AM,55.9,53.1,90,30.01,10.0,WSW,5.8,-,N/A,,Clear,250,2013-02-12 11:58:00
7:58 AM,57.0,53.1,87,30.03,10.0,West,8.1,-,N/A,,Mostly Cloudy,270,2013-02-12 12:58:00
8:58 AM,57.0,53.1,87,30.04,10.0,NW,8.1,-,N/A,,Mostly Cloudy,310,2013-02-12 13:58:00
9:58 AM,57.9,46.9,67,30.05,10.0,NW,8.1,-,N/A,,Overcast,320,2013-02-12 14:58:00
10:58 AM,57.0,44.1,62,30.06,10.0,NW,8.1,-,N/A,,Overcast,320,2013-02-12 15:58:00
11:58 AM,57.9,45.0,62,30.07,10.0,WNW,6.9,-,N/A,,Overcast,300,2013-02-12 16:58:00
12:58 PM,60.1,45.0,57,30.04,10.0,WSW,5.8,-,N/A,,Overcast,240,2013-02-12 17:58:00
1:58 PM,61.0,39.9,46,30.02,10.0,WSW,4.6,-,N/A,,Scattered Clouds,250,2013-02-12 18:58:00
2:58 PM,61.0,42.1,50,29.96,10.0,SW,5.8,-,N/A,,Clear,220,2013-02-12 19:58:00
3:58 PM,57.9,45.0,62,29.99,10.0,SSW,10.4,-,N/A,,Clear,210,2013-02-12 20:58:00
4:58 PM,55.9,46.9,72,29.99,10.0,SW,10.4,-,N/A,,Clear,230,2013-02-12 21:58:00
5:58 PM,55.0,46.9,74,29.98,10.0,WSW,6.9,-,N/A,,Clear,240,2013-02-12 22:58:00
6:58 PM,55.0,48.9,80,30.00,10.0,WSW,5.8,-,N/A,,Clear,250,2013-02-12 23:58:00
7:58 PM,54.0,48.9,83,29.99,10.0,Calm,Calm,-,N/A,,Clear,0,2013-02-13 00:58:00
8:58 PM,54.0,48.9,83,29.96,10.0,South,3.5,-,N/A,,Mostly Cloudy,180,2013-02-13 01:58:00
9:58 PM,54.0,51.1,90,29.97,10.0,SSW,3.5,-,N/A,,Mostly Cloudy,210,2013-02-13 02:58:00
10:58 PM,54.0,52.0,93,29.98,9.0,NNW,4.6,-,0.02,Rain,Light Rain,340,2013-02-13 03:58:00
11:58 PM,53.1,51.1,93,30.01,8.0,NNW,5.8,-,0.04,Rain,Light Rain,330,2013-02-13 04:58:00